createdAt,value
2022-09-03T00:00:07.207Z,55.82
2022-09-03T00:01:07.230Z,55.55
2022-09-03T00:02:07.230Z,57.42
2022-09-03T00:03:07.486Z,57.88
2022-09-03T00:04:07.168Z,57.49
2022-09-03T00:05:07.162Z,57.58
2022-09-03T00:06:07.153Z,55.91
2022-09-03T00:07:07.387Z,58.32
2022-09-03T00:08:07.171Z,59.74
2022-09-03T00:09:08.519Z,56.58
2022-09-03T00:10:07.136Z,57.59
2022-09-03T00:11:07.083Z,55.80
2022-09-03T00:12:07.073Z,56.55
2022-09-03T00:13:07.091Z,54.74
2022-09-03T00:14:07.093Z,54.07
2022-09-03T00:15:07.024Z,55.37
2022-09-03T00:16:07.068Z,55.74
2022-09-03T00:17:07.090Z,57.67
2022-09-03T00:18:07.048Z,58.61
2022-09-03T00:19:07.756Z,58.06
2022-09-03T00:20:06.979Z,57.31
2022-09-03T00:21:07.048Z,57.91
2022-09-03T00:22:06.975Z,58.91
2022-09-03T00:23:06.948Z,57.71
2022-09-03T00:24:07.005Z,58.59
2022-09-03T00:25:06.933Z,58.95
2022-09-03T00:26:06.972Z,55.64
2022-09-03T00:27:06.904Z,57.24
2022-09-03T00:28:06.905Z,57.64
2022-09-03T00:29:06.988Z,54.90
2022-09-03T00:30:06.905Z,59.87
2022-09-03T00:31:06.941Z,57.30
2022-09-03T00:32:06.862Z,58.02
2022-09-03T00:33:06.841Z,55.38
2022-09-03T00:34:06.840Z,56.75
2022-09-03T00:35:06.860Z,59.66
2022-09-03T00:36:06.804Z,59.23
2022-09-03T00:37:06.807Z,57.81
2022-09-03T00:38:06.803Z,56.90
2022-09-03T00:39:06.819Z,57.60
2022-09-03T00:40:06.818Z,58.78
2022-09-03T00:41:06.766Z,60.64
2022-09-03T00:42:06.747Z,58.21
2022-09-03T00:43:06.761Z,55.57
2022-09-03T00:44:06.712Z,56.65
2022-09-03T00:45:06.725Z,55.73
2022-09-03T00:46:06.748Z,55.84
2022-09-03T00:47:06.683Z,57.55
2022-09-03T00:48:06.693Z,54.45
2022-09-03T00:49:06.692Z,54.90
2022-09-03T00:50:06.642Z,55.80
2022-09-03T00:51:06.652Z,55.36
2022-09-03T00:52:06.624Z,57.35
2022-09-03T00:53:06.668Z,56.52
2022-09-03T00:54:06.634Z,57.02
2022-09-03T00:55:06.837Z,53.63
2022-09-03T00:56:06.654Z,55.81
2022-09-03T00:57:06.771Z,56.48
2022-09-03T00:58:06.566Z,56.74
2022-09-03T00:59:06.555Z,56.93
2022-09-03T01:00:06.570Z,57.14
2022-09-03T01:01:06.569Z,58.42
2022-09-03T01:02:06.608Z,60.08
2022-09-03T01:03:06.532Z,58.64
2022-09-03T01:04:06.497Z,58.41
2022-09-03T01:05:06.550Z,59.51
2022-09-03T01:06:06.534Z,57.01
2022-09-03T01:07:06.488Z,58.08
2022-09-03T01:08:06.487Z,56.84
2022-09-03T01:09:06.470Z,59.38
2022-09-03T01:10:06.451Z,59.98
2022-09-03T01:11:06.505Z,59.19
2022-09-03T01:12:06.445Z,56.95
2022-09-03T01:13:06.464Z,60.39
2022-09-03T01:14:06.400Z,58.57
2022-09-03T01:15:06.382Z,54.75
2022-09-03T01:16:06.403Z,55.07
2022-09-03T01:17:06.381Z,52.20
2022-09-03T01:18:06.346Z,52.70
2022-09-03T01:19:06.334Z,55.97
2022-09-03T01:20:06.322Z,56.38
2022-09-03T01:21:06.327Z,59.32
2022-09-03T01:22:06.353Z,58.46
2022-09-03T01:23:06.304Z,58.48
2022-09-03T01:24:06.328Z,55.52
2022-09-03T01:25:06.270Z,57.36
2022-09-03T01:26:06.266Z,57.61
2022-09-03T01:27:06.290Z,59.59
2022-09-03T01:28:06.229Z,61.93
2022-09-03T01:29:07.313Z,59.87
2022-09-03T01:30:06.300Z,59.62
2022-09-03T01:31:06.214Z,58.53
2022-09-03T01:32:06.216Z,58.65
2022-09-03T01:33:06.218Z,56.17
2022-09-03T01:34:06.188Z,55.74
2022-09-03T01:35:06.159Z,55.95
2022-09-03T01:36:06.145Z,59.47
2022-09-03T01:37:06.146Z,59.54
2022-09-03T01:38:06.190Z,57.87
2022-09-03T01:39:06.114Z,56.11
2022-09-03T01:40:06.219Z,55.72
2022-09-03T01:41:06.108Z,57.95
2022-09-03T01:42:06.132Z,57.85
2022-09-03T01:43:06.064Z,58.04
2022-09-03T01:44:06.109Z,58.10
2022-09-03T01:45:06.072Z,59.44
2022-09-03T01:46:06.165Z,57.53
2022-09-03T01:47:06.089Z,60.07
2022-09-03T01:48:06.043Z,59.28
2022-09-03T01:49:06.091Z,55.37
2022-09-03T01:50:05.993Z,55.35
2022-09-03T01:51:06.015Z,56.92
2022-09-03T01:52:05.978Z,55.77
2022-09-03T01:53:05.953Z,57.93
2022-09-03T01:54:05.984Z,57.03
2022-09-03T01:55:05.962Z,58.83
2022-09-03T01:56:05.927Z,57.87
2022-09-03T01:57:05.934Z,56.75
2022-09-03T01:58:05.916Z,58.46
2022-09-03T01:59:05.923Z,60.62
2022-09-03T02:00:05.959Z,60.90
2022-09-03T02:01:05.961Z,60.94
2022-09-03T02:02:05.852Z,57.55
2022-09-03T02:03:05.864Z,57.78
2022-09-03T02:04:05.842Z,61.53
2022-09-03T02:05:05.873Z,61.44
2022-09-03T02:06:05.829Z,58.43
2022-09-03T02:07:05.841Z,53.15
2022-09-03T02:08:07.187Z,57.85
2022-09-03T02:09:06.082Z,58.79
2022-09-03T02:10:05.767Z,53.60
2022-09-03T02:11:05.803Z,54.73
2022-09-03T02:12:05.774Z,58.41
2022-09-03T02:13:05.748Z,58.95
2022-09-03T02:14:05.744Z,60.01
2022-09-03T02:15:05.742Z,61.59
2022-09-03T02:16:05.864Z,61.81
2022-09-03T02:17:05.754Z,60.40
2022-09-03T02:18:05.884Z,60.64
2022-09-03T02:19:05.683Z,60.64
2022-09-03T02:20:05.695Z,61.50
2022-09-03T02:21:05.650Z,58.20
2022-09-03T02:22:05.703Z,56.75
2022-09-03T02:23:05.631Z,57.66
2022-09-03T02:24:05.650Z,57.01
2022-09-03T02:25:05.609Z,57.02
2022-09-03T02:26:05.582Z,58.95
2022-09-03T02:27:05.631Z,60.94
2022-09-03T02:28:05.661Z,60.30
2022-09-03T02:29:05.570Z,58.89
2022-09-03T02:30:05.585Z,55.95
2022-09-03T02:31:05.611Z,58.69
2022-09-03T02:32:05.583Z,55.78
2022-09-03T02:33:05.553Z,56.53
2022-09-03T02:34:05.530Z,56.12
2022-09-03T02:35:05.499Z,58.03
2022-09-03T02:36:05.491Z,57.79
2022-09-03T02:37:05.492Z,59.34
2022-09-03T02:38:05.547Z,59.75
2022-09-03T02:39:05.447Z,59.41
2022-09-03T02:40:05.528Z,57.74
2022-09-03T02:41:05.428Z,57.62
2022-09-03T02:42:05.426Z,59.43
2022-09-03T02:43:06.449Z,55.47
2022-09-03T02:44:05.405Z,57.24
2022-09-03T02:45:05.385Z,57.15
2022-09-03T02:46:05.468Z,57.60
2022-09-03T02:47:05.363Z,59.20
2022-09-03T02:48:05.388Z,54.48
2022-09-03T02:49:05.364Z,56.33
2022-09-03T02:50:05.379Z,54.18
2022-09-03T02:51:07.959Z,57.51
2022-09-03T02:52:05.311Z,59.64
2022-09-03T02:53:05.321Z,56.50
2022-09-03T02:54:05.321Z,55.04
2022-09-03T02:55:05.259Z,56.67
2022-09-03T02:56:05.280Z,54.82
2022-09-03T02:57:05.270Z,56.58
2022-09-03T02:58:05.310Z,55.23
2022-09-03T02:59:05.257Z,56.53
2022-09-03T03:00:05.214Z,56.71
2022-09-03T03:01:05.438Z,55.46
2022-09-03T03:02:05.257Z,52.83
2022-09-03T03:03:05.207Z,54.65
2022-09-03T03:04:05.794Z,56.16
2022-09-03T03:05:05.144Z,56.50
2022-09-03T03:06:05.185Z,55.56
2022-09-03T03:07:05.165Z,56.62
2022-09-03T03:08:05.126Z,55.05
2022-09-03T03:09:05.166Z,57.26
2022-09-03T03:10:05.147Z,55.88
2022-09-03T03:11:05.128Z,55.95
2022-09-03T03:12:05.092Z,56.37
2022-09-03T03:13:05.591Z,52.01
2022-09-03T03:14:05.081Z,53.88
2022-09-03T03:15:05.081Z,54.94
2022-09-03T03:16:05.030Z,57.57
2022-09-03T03:17:05.066Z,58.62
2022-09-03T03:18:05.038Z,58.23
2022-09-03T03:19:05.047Z,56.55
2022-09-03T03:20:04.995Z,57.07
2022-09-03T03:21:05.001Z,57.00
2022-09-03T03:22:04.986Z,54.57
2022-09-03T03:23:04.970Z,58.21
2022-09-03T03:24:04.996Z,56.35
2022-09-03T03:25:04.931Z,55.53
2022-09-03T03:26:04.919Z,56.38
2022-09-03T03:27:04.930Z,57.16
2022-09-03T03:28:04.911Z,56.92
2022-09-03T03:29:04.925Z,55.21
2022-09-03T03:30:04.943Z,58.26
2022-09-03T03:31:04.893Z,58.08
2022-09-03T03:32:04.847Z,55.24
2022-09-03T03:33:04.831Z,55.57
2022-09-03T03:34:04.864Z,60.49
2022-09-03T03:35:04.882Z,58.85
2022-09-03T03:36:04.878Z,59.21
2022-09-03T03:37:04.807Z,60.86
2022-09-03T03:38:04.802Z,57.81
2022-09-03T03:39:04.818Z,56.55
2022-09-03T03:40:04.890Z,57.05
2022-09-03T03:41:04.764Z,58.65
2022-09-03T03:42:04.731Z,57.85
2022-09-03T03:43:04.748Z,58.32
2022-09-03T03:44:04.736Z,58.91
2022-09-03T03:45:04.757Z,59.27
2022-09-03T03:46:04.758Z,58.36
2022-09-03T03:47:04.698Z,56.96
2022-09-03T03:48:04.666Z,58.16
2022-09-03T03:49:04.699Z,58.72
2022-09-03T03:50:04.667Z,59.22
2022-09-03T03:51:04.704Z,57.37
2022-09-03T03:52:04.647Z,56.42
2022-09-03T03:53:04.633Z,57.03
2022-09-03T03:54:05.611Z,59.51
2022-09-03T03:55:04.604Z,60.19
2022-09-03T03:56:04.624Z,59.74
2022-09-03T03:57:04.607Z,60.77
2022-09-03T03:58:04.550Z,59.46
2022-09-03T03:59:04.570Z,58.52
2022-09-03T04:00:04.527Z,58.30
2022-09-03T04:01:04.558Z,58.73
2022-09-03T04:02:04.606Z,54.80
2022-09-03T04:03:04.486Z,58.78
2022-09-03T04:04:04.490Z,56.26
2022-09-03T04:05:04.514Z,58.33
2022-09-03T04:06:04.490Z,60.95
2022-09-03T04:07:04.496Z,59.17
2022-09-03T04:08:05.225Z,59.49
2022-09-03T04:09:04.441Z,60.89
2022-09-03T04:10:04.441Z,59.48
2022-09-03T04:11:04.404Z,58.43
2022-09-03T04:12:04.445Z,57.57
2022-09-03T04:13:04.374Z,58.31
2022-09-03T04:14:04.372Z,57.47
2022-09-03T04:15:04.379Z,57.85
2022-09-03T04:16:04.329Z,58.52
2022-09-03T04:17:04.468Z,60.81
2022-09-03T04:18:04.362Z,59.99
2022-09-03T04:19:04.334Z,60.47
2022-09-03T04:20:04.288Z,60.47
2022-09-03T04:21:04.285Z,59.87
2022-09-03T04:22:04.300Z,59.31
2022-09-03T04:23:04.312Z,59.74
2022-09-03T04:24:04.240Z,60.18
2022-09-03T04:25:04.250Z,58.06
2022-09-03T04:26:04.221Z,58.52
2022-09-03T04:27:04.230Z,56.87
2022-09-03T04:28:04.213Z,56.45
2022-09-03T04:29:04.215Z,57.11
2022-09-03T04:30:04.202Z,59.34
2022-09-03T04:31:04.208Z,57.69
2022-09-03T04:32:04.141Z,55.60
2022-09-03T04:33:04.208Z,57.67
2022-09-03T04:34:04.126Z,57.46
2022-09-03T04:35:04.123Z,54.59
2022-09-03T04:36:04.120Z,57.77
2022-09-03T04:37:04.099Z,57.95
2022-09-03T04:38:04.084Z,60.06
2022-09-03T04:39:04.114Z,58.15
2022-09-03T04:40:04.119Z,58.97
2022-09-03T04:41:04.068Z,58.98
2022-09-03T04:42:04.034Z,57.65
2022-09-03T04:43:04.022Z,61.09
2022-09-03T04:44:04.051Z,56.62
2022-09-03T04:45:04.063Z,59.72
2022-09-03T04:46:04.269Z,60.49
2022-09-03T04:47:04.056Z,59.60
2022-09-03T04:48:04.104Z,59.77
2022-09-03T06:56:34.955Z,63.63
2022-09-03T06:57:32.426Z,68.40
2022-09-03T06:58:30.792Z,70.47
2022-09-03T06:59:30.904Z,66.74
2022-09-03T07:00:30.834Z,68.28
2022-09-03T07:01:31.512Z,66.60
2022-09-03T07:02:30.739Z,59.97
2022-09-03T07:03:30.750Z,60.46
2022-09-03T07:04:30.708Z,62.38
2022-09-03T07:05:30.703Z,60.01
2022-09-03T07:06:30.618Z,59.30
2022-09-03T07:07:30.746Z,59.92
2022-09-03T07:08:30.629Z,60.05
2022-09-03T07:09:31.795Z,62.10
2022-09-03T07:10:31.901Z,65.54
2022-09-03T07:11:31.795Z,62.09
2022-09-03T07:12:31.783Z,62.07
2022-09-03T07:13:31.773Z,61.33
2022-09-03T07:14:31.722Z,62.01
2022-09-03T07:15:31.824Z,61.89
2022-09-03T07:16:31.694Z,62.68
2022-09-03T07:17:31.755Z,61.15
2022-09-03T07:18:31.877Z,63.32
2022-09-03T07:19:31.742Z,67.90
2022-09-03T07:24:10.931Z,61.36
2022-09-03T07:25:11.088Z,61.16
2022-09-03T07:26:10.815Z,62.35
2022-09-03T07:27:14.374Z,62.65
2022-09-03T07:28:10.773Z,59.72
2022-09-03T07:29:10.853Z,61.49
2022-09-03T07:30:10.771Z,59.93
2022-09-03T07:31:10.875Z,61.91
2022-09-03T07:32:10.785Z,61.30
2022-09-03T07:33:10.729Z,61.36
2022-09-03T07:34:10.804Z,62.78
2022-09-03T07:35:10.684Z,62.39
2022-09-03T07:36:10.674Z,61.46
2022-09-03T07:37:10.694Z,62.55
2022-09-03T07:38:10.665Z,62.58
2022-09-03T07:39:10.636Z,62.81
2022-09-03T07:40:10.626Z,60.84
2022-09-03T07:41:10.627Z,60.18
2022-09-03T07:42:10.611Z,59.84
2022-09-03T07:43:10.617Z,59.70
2022-09-03T07:44:10.565Z,59.21
2022-09-03T07:45:10.559Z,61.35
2022-09-03T07:46:10.573Z,61.17
2022-09-03T07:47:10.567Z,61.39
2022-09-03T07:48:10.528Z,60.95
2022-09-03T07:49:10.532Z,60.33
2022-09-03T07:50:10.493Z,61.54
2022-09-03T07:51:10.522Z,60.39
2022-09-03T07:52:11.881Z,62.48
2022-09-03T07:53:10.464Z,61.88
2022-09-03T07:54:10.659Z,59.97
2022-09-03T07:55:10.459Z,60.93
2022-09-03T07:56:10.425Z,60.87
2022-09-03T07:57:10.417Z,59.90
2022-09-03T07:58:10.424Z,60.42
2022-09-03T07:59:10.438Z,62.48
2022-09-03T08:00:20.886Z,61.85
2022-09-03T08:01:20.593Z,59.85
2022-09-03T08:02:10.417Z,56.60
2022-09-03T08:03:10.533Z,59.77
2022-09-03T08:04:10.417Z,61.23
2022-09-03T08:05:10.396Z,59.71
2022-09-03T08:06:10.472Z,60.30
2022-09-03T08:07:10.293Z,59.02
2022-09-03T08:08:10.464Z,60.54
2022-09-03T08:09:10.272Z,58.84
2022-09-03T08:10:10.256Z,59.38
2022-09-03T08:11:10.267Z,58.64
2022-09-03T08:12:10.222Z,59.14
2022-09-03T08:13:10.215Z,56.98
2022-09-03T08:14:10.208Z,55.48
2022-09-03T08:15:10.196Z,57.18
2022-09-03T08:16:11.379Z,58.80
2022-09-03T08:17:11.285Z,59.05
2022-09-03T08:18:11.280Z,58.65
2022-09-03T08:19:11.276Z,61.18
2022-09-03T08:20:11.258Z,59.57
2022-09-03T08:21:11.273Z,60.74
2022-09-03T08:22:11.211Z,59.04
2022-09-03T08:23:11.202Z,58.09
2022-09-03T08:24:11.272Z,61.55
2022-09-03T08:25:13.853Z,62.60
2022-09-03T08:26:11.167Z,60.69
2022-09-03T08:27:11.176Z,62.15
2022-09-03T08:28:11.166Z,62.19
2022-09-03T08:29:11.134Z,61.47
2022-09-03T08:30:11.120Z,60.02
2022-09-03T08:31:11.136Z,57.51
2022-09-03T08:32:11.145Z,61.77
2022-09-03T08:33:11.099Z,60.54
2022-09-03T08:34:11.092Z,60.36
2022-09-03T08:35:11.222Z,60.45
2022-09-03T08:36:11.190Z,59.71
2022-09-03T08:37:11.122Z,58.13
2022-09-03T08:38:11.071Z,59.74
2022-09-03T08:39:11.189Z,59.42
2022-09-03T08:40:11.013Z,58.76
2022-09-03T08:41:10.994Z,60.21
2022-09-03T08:42:10.976Z,60.39
2022-09-03T08:43:11.024Z,60.70
2022-09-03T08:44:10.959Z,60.87
2022-09-03T08:45:10.940Z,60.17
2022-09-03T08:46:11.020Z,61.67
2022-09-03T08:47:10.917Z,60.01
2022-09-03T08:48:10.918Z,59.83
2022-09-03T08:49:10.910Z,62.55
2022-09-03T08:50:10.885Z,62.14
2022-09-03T08:51:10.869Z,62.45
2022-09-03T08:52:10.862Z,61.29
2022-09-03T08:53:10.884Z,60.34
2022-09-03T08:54:10.825Z,60.21
2022-09-03T08:55:10.825Z,59.96
2022-09-03T08:56:10.810Z,61.05
2022-09-03T08:57:10.789Z,61.13
2022-09-03T08:58:10.834Z,62.20
2022-09-03T08:59:10.769Z,59.22
2022-09-03T09:00:10.751Z,60.74
2022-09-03T09:01:10.741Z,60.08
2022-09-03T09:02:10.830Z,61.32
2022-09-03T09:03:10.721Z,61.77
2022-09-03T09:04:10.729Z,61.57
2022-09-03T09:05:14.255Z,60.18
2022-09-03T09:06:10.680Z,61.27
2022-09-03T09:07:10.673Z,61.84
2022-09-03T09:08:10.660Z,62.86
2022-09-03T09:09:10.682Z,60.86
2022-09-03T09:10:10.643Z,56.93
2022-09-03T09:11:10.646Z,60.73
2022-09-03T09:12:10.619Z,61.24
2022-09-03T09:13:10.594Z,63.46
2022-09-03T09:14:10.596Z,64.12
2022-09-03T09:15:10.593Z,61.71
2022-09-03T09:16:10.614Z,61.34
2022-09-03T09:17:10.547Z,62.07
2022-09-03T09:18:10.529Z,63.56
2022-09-03T09:19:10.529Z,61.77
2022-09-03T09:20:10.551Z,62.86
2022-09-03T09:21:10.503Z,63.96
2022-09-03T09:22:10.483Z,63.38
2022-09-03T09:23:10.462Z,62.41
2022-09-03T09:24:10.471Z,64.53
2022-09-03T09:25:10.459Z,62.60
2022-09-03T09:26:10.474Z,63.58
2022-09-03T09:27:15.386Z,61.38
2022-09-03T09:28:10.406Z,62.04
2022-09-03T09:29:10.412Z,63.21
2022-09-03T09:30:10.435Z,63.51
2022-09-03T09:31:10.449Z,63.23
2022-09-03T09:32:10.390Z,62.26
2022-09-03T09:33:10.355Z,63.65
2022-09-03T09:34:10.350Z,62.92
2022-09-03T09:35:10.326Z,62.18
2022-09-03T09:36:10.371Z,62.45
2022-09-03T09:37:10.318Z,63.29
2022-09-03T09:38:10.286Z,61.63
2022-09-03T09:39:10.290Z,62.36
2022-09-03T09:40:47.373Z,62.47
2022-09-03T09:41:10.681Z,63.85
2022-09-03T09:42:10.551Z,62.57
2022-09-03T09:43:10.450Z,62.17
2022-09-03T09:44:10.229Z,62.12
2022-09-03T09:45:11.416Z,62.42
2022-09-03T09:46:10.353Z,62.22
2022-09-03T09:47:10.265Z,62.48
2022-09-03T09:48:10.206Z,61.67
2022-09-03T09:49:10.222Z,63.02
2022-09-03T09:50:10.238Z,61.32
2022-09-03T09:51:10.141Z,60.93
2022-09-03T09:52:10.176Z,61.27
2022-09-03T09:53:10.152Z,62.86
2022-09-03T09:54:12.645Z,62.78
2022-09-03T09:55:10.221Z,63.45
2022-09-03T09:56:10.129Z,63.53
2022-09-03T09:57:10.113Z,64.28
2022-09-03T09:58:14.330Z,64.60
2022-09-03T09:59:10.092Z,63.33
2022-09-03T10:00:10.110Z,62.54
2022-09-03T10:01:10.102Z,64.34
2022-09-03T10:02:10.273Z,63.17
2022-09-03T10:03:10.116Z,63.44
2022-09-03T10:04:10.166Z,63.46
2022-09-03T10:05:10.107Z,63.82
2022-09-03T10:06:09.994Z,63.95
2022-09-03T10:07:10.134Z,63.32
2022-09-03T10:08:09.964Z,64.49
2022-09-03T10:09:09.945Z,63.49
2022-09-03T10:10:10.101Z,64.09
2022-09-03T10:11:10.019Z,64.00
2022-09-03T10:12:09.993Z,63.95
2022-09-03T10:13:09.917Z,64.06
2022-09-03T10:14:09.944Z,64.05
2022-09-03T10:15:09.902Z,62.41
2022-09-03T10:16:09.912Z,62.11
2022-09-03T10:17:09.870Z,61.99
2022-09-03T10:18:09.927Z,63.18
2022-09-03T10:19:09.846Z,65.00
2022-09-03T10:20:09.805Z,64.04
2022-09-03T10:21:09.819Z,62.59
2022-09-03T10:22:09.845Z,64.03
2022-09-03T10:23:09.821Z,63.62
2022-09-03T10:24:09.798Z,63.21
2022-09-03T10:25:09.773Z,63.15
2022-09-03T10:26:09.769Z,61.50
2022-09-03T10:27:09.768Z,63.21
2022-09-03T10:28:09.784Z,63.87
2022-09-03T10:29:09.749Z,64.09
2022-09-03T10:30:09.685Z,62.46
2022-09-03T10:31:09.794Z,62.86
2022-09-03T10:32:09.736Z,62.28
2022-09-03T10:33:09.670Z,63.75
2022-09-03T10:34:09.738Z,65.73
2022-09-03T10:35:09.791Z,61.03
2022-09-03T10:36:09.645Z,63.91
2022-09-03T10:37:09.742Z,63.14
2022-09-03T10:38:09.951Z,62.85
2022-09-03T10:39:09.640Z,62.72
2022-09-03T10:40:09.642Z,64.08
2022-09-03T10:41:09.676Z,62.22
2022-09-03T10:42:09.635Z,60.99
2022-09-03T10:43:09.701Z,60.34
2022-09-03T10:44:09.548Z,61.57
2022-09-03T10:45:09.745Z,62.41
2022-09-03T10:46:09.640Z,61.60
2022-09-03T10:47:09.532Z,61.50
2022-09-03T10:48:09.531Z,62.11
2022-09-03T10:49:09.502Z,62.50
2022-09-03T10:50:09.587Z,62.17
2022-09-03T10:51:09.436Z,63.43
2022-09-03T10:52:09.507Z,62.44
2022-09-03T10:53:09.508Z,62.89
2022-09-03T10:54:09.759Z,63.26
2022-09-03T10:55:09.520Z,62.55
2022-09-03T10:56:09.533Z,64.16
2022-09-03T10:57:09.397Z,60.89
2022-09-03T10:58:09.733Z,63.86
2022-09-03T10:59:09.341Z,62.98
2022-09-03T11:00:09.477Z,64.04
2022-09-03T11:01:09.355Z,63.39
2022-09-03T11:02:09.325Z,62.32
2022-09-03T11:03:09.329Z,61.51
2022-09-03T11:04:09.328Z,63.35
2022-09-03T11:05:09.287Z,62.25
2022-09-03T11:06:09.294Z,62.21
2022-09-03T11:07:09.648Z,61.97
2022-09-03T11:08:09.264Z,62.98
2022-09-03T11:09:09.275Z,62.82
2022-09-03T11:10:09.264Z,63.29
2022-09-03T11:11:09.253Z,63.31
2022-09-03T11:12:09.596Z,61.45
2022-09-03T11:13:09.405Z,63.34
2022-09-03T11:14:24.297Z,61.34
2022-09-03T11:15:09.490Z,60.52
2022-09-03T11:16:09.294Z,62.94
2022-09-03T11:17:10.185Z,64.58
2022-09-03T11:18:09.267Z,64.22
2022-09-03T11:19:09.141Z,63.92
2022-09-03T11:20:09.132Z,63.40
2022-09-03T11:21:12.231Z,62.95
2022-09-03T11:22:09.491Z,64.64
2022-09-03T11:23:10.061Z,62.00
2022-09-03T11:24:09.090Z,63.53
2022-09-03T11:25:09.127Z,63.17
2022-09-03T11:26:09.187Z,62.73
2022-09-03T11:27:09.065Z,62.42
2022-09-03T11:28:09.098Z,64.28
2022-09-03T11:29:09.027Z,62.45
2022-09-03T11:30:09.010Z,63.56
2022-09-03T11:31:10.127Z,62.87
2022-09-03T11:32:09.007Z,62.81
2022-09-03T11:33:09.056Z,63.68
2022-09-03T11:34:09.057Z,63.43
2022-09-03T11:35:08.965Z,64.14
2022-09-03T11:36:08.982Z,62.52
2022-09-03T11:37:09.018Z,61.66
2022-09-03T11:38:08.904Z,62.55
2022-09-03T11:39:08.968Z,62.89
2022-09-03T11:40:08.977Z,63.55
2022-09-03T11:41:08.878Z,63.53
2022-09-03T11:42:08.975Z,62.98
2022-09-03T11:43:08.903Z,61.80
2022-09-03T11:44:08.837Z,62.00
2022-09-03T11:45:08.947Z,61.18
2022-09-03T11:46:08.916Z,62.81
2022-09-03T11:47:08.821Z,61.39
2022-09-03T11:48:08.832Z,62.65
2022-09-03T11:49:08.862Z,61.55
2022-09-03T11:50:08.796Z,61.45
2022-09-03T11:51:08.769Z,61.71
2022-09-03T11:52:08.804Z,61.39
2022-09-03T11:53:09.447Z,62.78
2022-09-03T11:54:08.772Z,63.71
2022-09-03T11:55:09.124Z,63.49
2022-09-03T11:56:08.757Z,61.59
2022-09-03T11:57:08.789Z,63.43
2022-09-03T11:58:08.735Z,63.10
2022-09-03T11:59:08.687Z,62.32
2022-09-03T12:00:08.885Z,61.82
2022-09-03T12:01:08.704Z,62.29
2022-09-03T12:02:09.322Z,62.02
2022-09-03T12:03:08.662Z,62.48
2022-09-03T12:04:08.729Z,61.78
2022-09-03T12:05:08.608Z,61.71
2022-09-03T12:06:08.624Z,62.90
2022-09-03T12:07:08.742Z,61.77
2022-09-03T12:08:09.156Z,63.99
2022-09-03T12:09:08.705Z,61.77
2022-09-03T12:10:09.269Z,60.86
2022-09-03T12:11:08.592Z,63.19
2022-09-03T12:12:08.576Z,61.14
2022-09-03T12:13:08.573Z,61.79
2022-09-03T12:14:13.596Z,63.03
2022-09-03T12:15:08.523Z,62.41
2022-09-03T12:16:08.697Z,60.28
2022-09-03T12:17:08.513Z,61.87
2022-09-03T12:18:08.530Z,62.21
2022-09-03T12:19:12.795Z,63.53
2022-09-03T12:20:08.509Z,63.42
2022-09-03T12:21:08.548Z,64.19
2022-09-03T12:22:08.450Z,64.64
2022-09-03T12:23:08.512Z,62.73
2022-09-03T12:24:08.549Z,62.15
2022-09-03T12:25:08.434Z,62.49
2022-09-03T12:26:08.465Z,60.73
2022-09-03T12:27:08.419Z,61.32
2022-09-03T12:28:08.393Z,61.81
2022-09-03T12:29:09.365Z,61.71
2022-09-03T12:30:08.414Z,60.58
2022-09-03T12:31:08.429Z,61.01
2022-09-03T12:32:08.807Z,62.78
2022-09-03T12:33:08.391Z,62.51
2022-09-03T12:34:08.462Z,60.69
2022-09-03T12:35:08.695Z,61.55
2022-09-03T12:36:08.345Z,60.97
2022-09-03T12:37:08.379Z,60.36
2022-09-03T12:38:09.503Z,60.71
2022-09-03T12:39:12.070Z,62.22
2022-09-03T12:40:09.437Z,61.90
2022-09-03T12:41:27.626Z,60.33
2022-09-03T12:42:10.261Z,59.90
2022-09-03T12:44:08.272Z,62.55
2022-09-03T12:45:08.182Z,61.93
2022-09-03T12:46:11.642Z,61.96
2022-09-03T12:47:38.726Z,60.59
2022-09-03T12:48:10.155Z,62.02
2022-09-03T12:50:08.143Z,60.33
2022-09-03T12:52:08.118Z,61.09
2022-09-03T12:53:08.088Z,61.55
2022-09-03T12:54:08.071Z,63.11
2022-09-03T12:55:08.080Z,63.60
2022-09-03T12:56:08.095Z,62.67
2022-09-03T12:57:08.639Z,62.73
2022-09-03T12:58:12.868Z,63.63
2022-09-03T12:59:08.005Z,62.95
2022-09-03T13:00:08.844Z,61.22
2022-09-03T13:01:08.051Z,63.43
2022-09-03T13:02:08.074Z,61.56
2022-09-03T13:03:07.985Z,59.65
2022-09-03T13:04:08.453Z,62.18
2022-09-03T13:05:08.120Z,64.56
2022-09-03T13:06:07.951Z,60.91
2022-09-03T13:07:08.101Z,60.54
2022-09-03T13:08:07.928Z,61.70
2022-09-03T13:09:07.892Z,62.16
2022-09-03T13:10:08.025Z,63.14
2022-09-03T13:11:07.897Z,63.45
2022-09-03T13:12:07.867Z,62.36
2022-09-03T13:13:07.915Z,62.76
2022-09-03T13:14:07.886Z,62.01
2022-09-03T13:15:07.881Z,62.47
2022-09-03T13:16:07.872Z,60.29
2022-09-03T13:17:07.802Z,59.90
2022-09-03T13:18:07.842Z,60.90
2022-09-03T13:19:07.893Z,61.66
2022-09-03T13:20:07.834Z,62.67
2022-09-03T13:21:07.845Z,60.75
2022-09-03T13:22:07.719Z,63.10
2022-09-03T13:23:07.761Z,62.26
2022-09-03T13:24:07.713Z,61.48
2022-09-03T13:25:07.736Z,60.86
2022-09-03T13:26:07.724Z,63.00
2022-09-03T13:27:07.683Z,62.52
2022-09-03T13:28:07.675Z,60.52
2022-09-03T13:29:07.677Z,60.70
2022-09-03T13:30:07.742Z,62.73
2022-09-03T13:31:07.678Z,61.03
2022-09-03T13:32:07.628Z,62.85
2022-09-03T13:33:07.614Z,61.59
2022-09-03T13:34:07.670Z,59.51
2022-09-03T13:35:07.635Z,61.34
2022-09-03T13:44:44.172Z,63.28
2022-09-03T13:45:44.261Z,61.60
2022-09-03T13:46:44.089Z,63.01
2022-09-03T13:47:44.079Z,64.95
2022-09-03T13:48:44.013Z,63.56
2022-09-03T13:49:44.041Z,62.45
2022-09-03T13:50:44.027Z,61.28
2022-09-03T13:51:43.999Z,61.09
2022-09-03T13:52:44.000Z,62.08
2022-09-03T13:53:43.989Z,62.48
2022-09-03T13:54:49.090Z,62.12
2022-09-03T13:55:43.927Z,63.75
2022-09-03T13:56:43.901Z,62.48
2022-09-03T13:57:43.909Z,61.93
2022-09-03T13:58:43.898Z,64.17
2022-09-03T13:59:43.873Z,64.06
2022-09-03T14:00:43.855Z,64.64
2022-09-03T14:01:43.935Z,64.85
2022-09-03T14:02:43.876Z,64.12
2022-09-03T14:03:48.608Z,65.13
2022-09-03T14:04:44.811Z,62.19
2022-09-03T14:05:43.792Z,63.72
2022-09-03T14:06:43.772Z,60.10
2022-09-03T14:07:43.766Z,62.79
2022-09-03T14:08:43.761Z,63.31
2022-09-03T14:09:43.755Z,63.44
2022-09-03T14:10:43.722Z,63.36
2022-09-03T14:11:43.759Z,62.58
2022-09-03T14:12:43.695Z,63.80
2022-09-03T14:13:43.717Z,63.82
2022-09-03T14:14:43.670Z,64.72
2022-09-03T14:15:45.696Z,61.95
2022-09-03T14:16:43.696Z,59.54
2022-09-03T14:17:43.885Z,64.63
2022-09-03T14:18:44.250Z,63.95
2022-09-03T14:19:43.730Z,63.42
2022-09-03T14:20:43.596Z,63.24
2022-09-03T14:21:43.588Z,63.53
2022-09-03T14:22:43.563Z,63.54
2022-09-03T14:23:43.583Z,62.16
2022-09-03T14:24:43.546Z,62.24
2022-09-03T14:25:47.481Z,61.30
2022-09-03T14:26:43.520Z,63.37
2022-09-03T14:27:43.511Z,62.56
2022-09-03T14:28:43.506Z,62.14
2022-09-03T14:29:43.483Z,63.34
2022-09-03T14:30:43.463Z,63.89
2022-09-03T14:31:43.498Z,64.40
2022-09-03T14:32:43.427Z,64.37
2022-09-03T14:33:43.446Z,63.74
2022-09-03T14:34:43.414Z,64.63
2022-09-03T14:35:43.396Z,64.26
2022-09-03T14:36:43.396Z,63.79
2022-09-03T14:37:43.375Z,63.89
2022-09-03T14:38:43.375Z,64.39
2022-09-03T14:39:43.484Z,61.78
2022-09-03T14:40:43.417Z,61.81
2022-09-03T14:41:43.328Z,63.44
2022-09-03T14:42:43.319Z,61.81
2022-09-03T14:43:43.330Z,62.25
2022-09-03T14:44:43.306Z,63.57
2022-09-03T14:45:43.344Z,62.55
2022-09-03T14:46:43.292Z,63.02
2022-09-03T14:47:43.242Z,63.89
2022-09-03T14:48:43.245Z,60.32
2022-09-03T14:49:43.218Z,60.97
2022-09-03T14:50:43.200Z,60.89
2022-09-03T14:51:43.244Z,62.34
2022-09-03T14:52:43.189Z,62.52
2022-09-03T14:53:43.201Z,62.30
2022-09-03T14:54:43.154Z,62.16
2022-09-03T14:55:43.155Z,63.46
2022-09-03T14:56:43.119Z,63.10
2022-09-03T14:57:43.111Z,62.69
2022-09-03T14:58:43.135Z,62.21
2022-09-03T14:59:43.091Z,61.55
2022-09-03T15:00:43.101Z,62.13
2022-09-03T15:01:43.063Z,63.19
2022-09-03T15:02:43.045Z,63.27
2022-09-03T15:03:43.050Z,62.42
2022-09-03T15:04:43.039Z,62.96
2022-09-03T15:05:43.036Z,62.59
2022-09-03T15:06:43.156Z,63.77
2022-09-03T15:07:42.992Z,62.14
2022-09-03T15:08:42.973Z,63.60
2022-09-03T15:09:42.984Z,63.55
2022-09-03T15:10:43.008Z,62.77
2022-09-03T15:11:42.944Z,62.75
2022-09-03T15:12:42.921Z,64.00
2022-09-03T15:13:42.928Z,62.78
2022-09-03T15:14:42.940Z,63.05